sensor_id;sensor_type;location;lat;lon;timestamp;P1;durP1;ratioP1;P2;durP2;ratioP2
26820;SDS011;37186;51.394;5.454;2023-05-23T00:00:09;16.73;;;16.23;;
26820;SDS011;37186;51.394;5.454;2023-05-23T00:03:11;14.02;;;13.63;;
26820;SDS011;37186;51.394;5.454;2023-05-23T00:06:12;14.32;;;13.93;;
26820;SDS011;37186;51.394;5.454;2023-05-23T00:09:13;12.10;;;11.73;;
26820;SDS011;37186;51.394;5.454;2023-05-23T00:12:14;11.90;;;11.55;;
26820;SDS011;37186;51.394;5.454;2023-05-23T00:15:14;11.85;;;11.50;;
26820;SDS011;37186;51.394;5.454;2023-05-23T00:18:15;12.23;;;11.82;;
26820;SDS011;37186;51.394;5.454;2023-05-23T00:21:16;11.25;;;10.95;;
26820;SDS011;37186;51.394;5.454;2023-05-23T00:24:16;10.20;;;9.90;;
26820;SDS011;37186;51.394;5.454;2023-05-23T00:27:17;10.45;;;10.15;;
26820;SDS011;37186;51.394;5.454;2023-05-23T00:30:18;9.55;;;9.25;;
26820;SDS011;37186;51.394;5.454;2023-05-23T00:33:18;9.25;;;8.95;;
26820;SDS011;37186;51.394;5.454;2023-05-23T00:36:21;9.77;;;9.48;;
26820;SDS011;37186;51.394;5.454;2023-05-23T00:39:22;8.73;;;8.50;;
26820;SDS011;37186;51.394;5.454;2023-05-23T00:42:22;8.70;;;8.48;;
26820;SDS011;37186;51.394;5.454;2023-05-23T00:45:23;8.73;;;8.50;;
26820;SDS011;37186;51.394;5.454;2023-05-23T00:48:24;8.43;;;8.23;;
26820;SDS011;37186;51.394;5.454;2023-05-23T00:51:25;8.80;;;8.55;;
26820;SDS011;37186;51.394;5.454;2023-05-23T00:54:27;8.25;;;8.05;;
26820;SDS011;37186;51.394;5.454;2023-05-23T00:57:30;7.57;;;7.38;;
26820;SDS011;37186;51.394;5.454;2023-05-23T01:00:33;7.20;;;7.00;;
26820;SDS011;37186;51.394;5.454;2023-05-23T01:03:34;7.30;;;7.10;;
26820;SDS011;37186;51.394;5.454;2023-05-23T01:06:35;8.75;;;8.50;;
26820;SDS011;37186;51.394;5.454;2023-05-23T01:09:35;6.80;;;6.60;;
26820;SDS011;37186;51.394;5.454;2023-05-23T01:16:16;6.95;;;6.75;;
26820;SDS011;37186;51.394;5.454;2023-05-23T01:29:49;6.82;;;6.63;;
26820;SDS011;37186;51.394;5.454;2023-05-23T01:32:55;9.05;;;8.77;;
26820;SDS011;37186;51.394;5.454;2023-05-23T01:35:59;7.35;;;7.15;;
26820;SDS011;37186;51.394;5.454;2023-05-23T01:39:02;6.95;;;6.75;;
26820;SDS011;37186;51.394;5.454;2023-05-23T01:42:03;6.97;;;6.78;;
26820;SDS011;37186;51.394;5.454;2023-05-23T01:45:04;6.65;;;6.45;;
26820;SDS011;37186;51.394;5.454;2023-05-23T01:48:05;6.95;;;6.75;;
26820;SDS011;37186;51.394;5.454;2023-05-23T01:51:08;6.80;;;6.60;;
26820;SDS011;37186;51.394;5.454;2023-05-23T01:54:09;6.80;;;6.60;;
26820;SDS011;37186;51.394;5.454;2023-05-23T01:57:09;7.53;;;7.32;;
26820;SDS011;37186;51.394;5.454;2023-05-23T02:00:10;7.07;;;6.88;;
26820;SDS011;37186;51.394;5.454;2023-05-23T02:03:11;6.53;;;6.32;;
26820;SDS011;37186;51.394;5.454;2023-05-23T02:06:12;7.28;;;7.07;;
26820;SDS011;37186;51.394;5.454;2023-05-23T02:09:13;8.07;;;7.88;;
26820;SDS011;37186;51.394;5.454;2023-05-23T02:12:13;7.10;;;6.90;;
26820;SDS011;37186;51.394;5.454;2023-05-23T02:15:14;6.47;;;6.28;;
26820;SDS011;37186;51.394;5.454;2023-05-23T02:18:16;7.07;;;6.88;;
26820;SDS011;37186;51.394;5.454;2023-05-23T02:21:17;7.72;;;7.53;;
26820;SDS011;37186;51.394;5.454;2023-05-23T02:24:17;7.45;;;7.25;;
26820;SDS011;37186;51.394;5.454;2023-05-23T02:27:18;7.38;;;7.18;;
26820;SDS011;37186;51.394;5.454;2023-05-23T02:30:19;10.02;;;9.73;;
26820;SDS011;37186;51.394;5.454;2023-05-23T02:33:19;11.55;;;11.25;;
26820;SDS011;37186;51.394;5.454;2023-05-23T02:36:20;10.85;;;10.55;;
26820;SDS011;37186;51.394;5.454;2023-05-23T02:39:21;9.95;;;9.65;;
26820;SDS011;37186;51.394;5.454;2023-05-23T02:42:22;11.98;;;11.60;;
26820;SDS011;37186;51.394;5.454;2023-05-23T02:45:22;13.45;;;13.05;;
26820;SDS011;37186;51.394;5.454;2023-05-23T02:48:23;14.68;;;14.23;;
26820;SDS011;37186;51.394;5.454;2023-05-23T02:51:24;14.27;;;13.88;;
26820;SDS011;37186;51.394;5.454;2023-05-23T02:54:25;14.02;;;13.63;;
26820;SDS011;37186;51.394;5.454;2023-05-23T02:57:25;14.43;;;14.02;;
26820;SDS011;37186;51.394;5.454;2023-05-23T03:00:26;14.52;;;14.10;;
26820;SDS011;37186;51.394;5.454;2023-05-23T03:03:26;13.57;;;13.18;;
26820;SDS011;37186;51.394;5.454;2023-05-23T03:06:27;13.82;;;13.43;;
26820;SDS011;37186;51.394;5.454;2023-05-23T03:09:31;14.18;;;13.77;;
26820;SDS011;37186;51.394;5.454;2023-05-23T03:12:31;13.48;;;13.07;;
26820;SDS011;37186;51.394;5.454;2023-05-23T03:15:32;12.85;;;12.45;;
26820;SDS011;37186;51.394;5.454;2023-05-23T03:18:32;14.50;;;14.07;;
26820;SDS011;37186;51.394;5.454;2023-05-23T03:21:33;12.60;;;12.20;;
26820;SDS011;37186;51.394;5.454;2023-05-23T03:24:34;13.90;;;13.50;;
26820;SDS011;37186;51.394;5.454;2023-05-23T03:27:35;13.75;;;13.35;;
26820;SDS011;37186;51.394;5.454;2023-05-23T03:30:35;14.38;;;13.98;;
26820;SDS011;37186;51.394;5.454;2023-05-23T03:33:36;13.23;;;12.82;;
26820;SDS011;37186;51.394;5.454;2023-05-23T03:36:36;13.68;;;13.27;;
26820;SDS011;37186;51.394;5.454;2023-05-23T03:39:38;13.68;;;13.27;;
26820;SDS011;37186;51.394;5.454;2023-05-23T03:42:38;12.25;;;11.88;;
26820;SDS011;37186;51.394;5.454;2023-05-23T03:45:39;13.38;;;12.98;;
26820;SDS011;37186;51.394;5.454;2023-05-23T03:48:39;13.05;;;12.65;;
26820;SDS011;37186;51.394;5.454;2023-05-23T03:51:40;13.63;;;13.23;;
26820;SDS011;37186;51.394;5.454;2023-05-23T03:54:40;13.48;;;13.07;;
26820;SDS011;37186;51.394;5.454;2023-05-23T03:57:41;13.25;;;12.85;;
26820;SDS011;37186;51.394;5.454;2023-05-23T04:00:41;13.73;;;13.32;;
26820;SDS011;37186;51.394;5.454;2023-05-23T04:03:42;13.38;;;12.98;;
26820;SDS011;37186;51.394;5.454;2023-05-23T04:06:42;13.75;;;13.35;;
26820;SDS011;37186;51.394;5.454;2023-05-23T04:09:43;13.48;;;13.07;;
26820;SDS011;37186;51.394;5.454;2023-05-23T04:12:44;13.93;;;13.52;;
26820;SDS011;37186;51.394;5.454;2023-05-23T04:15:44;13.60;;;13.20;;
26820;SDS011;37186;51.394;5.454;2023-05-23T04:18:46;14.40;;;14.00;;
26820;SDS011;37186;51.394;5.454;2023-05-23T04:21:47;13.85;;;13.45;;
26820;SDS011;37186;51.394;5.454;2023-05-23T04:24:47;13.98;;;13.57;;
26820;SDS011;37186;51.394;5.454;2023-05-23T04:27:48;14.10;;;13.70;;
26820;SDS011;37186;51.394;5.454;2023-05-23T04:30:48;13.60;;;13.20;;
26820;SDS011;37186;51.394;5.454;2023-05-23T04:33:49;14.60;;;14.18;;
26820;SDS011;37186;51.394;5.454;2023-05-23T04:36:50;14.35;;;13.95;;
26820;SDS011;37186;51.394;5.454;2023-05-23T04:39:52;14.23;;;13.82;;
26820;SDS011;37186;51.394;5.454;2023-05-23T04:42:53;15.52;;;15.02;;
26820;SDS011;37186;51.394;5.454;2023-05-23T04:45:54;15.20;;;14.70;;
26820;SDS011;37186;51.394;5.454;2023-05-23T04:48:54;14.70;;;14.27;;
26820;SDS011;37186;51.394;5.454;2023-05-23T04:51:57;14.25;;;13.85;;
26820;SDS011;37186;51.394;5.454;2023-05-23T04:54:58;14.48;;;14.05;;
26820;SDS011;37186;51.394;5.454;2023-05-23T04:57:59;14.88;;;14.40;;
26820;SDS011;37186;51.394;5.454;2023-05-23T05:01:00;14.30;;;13.90;;
26820;SDS011;37186;51.394;5.454;2023-05-23T05:04:00;14.65;;;14.23;;
26820;SDS011;37186;51.394;5.454;2023-05-23T05:07:01;14.40;;;13.98;;
26820;SDS011;37186;51.394;5.454;2023-05-23T05:10:03;13.73;;;13.32;;
26820;SDS011;37186;51.394;5.454;2023-05-23T05:13:04;13.25;;;12.85;;
26820;SDS011;37186;51.394;5.454;2023-05-23T05:16:05;13.75;;;13.35;;
26820;SDS011;37186;51.394;5.454;2023-05-23T05:19:05;14.45;;;14.02;;
26820;SDS011;37186;51.394;5.454;2023-05-23T05:22:06;12.93;;;12.52;;
26820;SDS011;37186;51.394;5.454;2023-05-23T05:25:07;13.32;;;12.93;;
26820;SDS011;37186;51.394;5.454;2023-05-23T05:28:08;13.35;;;12.95;;
26820;SDS011;37186;51.394;5.454;2023-05-23T05:31:09;12.77;;;12.38;;
26820;SDS011;37186;51.394;5.454;2023-05-23T05:34:14;13.10;;;12.70;;
26820;SDS011;37186;51.394;5.454;2023-05-23T05:37:15;13.35;;;12.95;;
26820;SDS011;37186;51.394;5.454;2023-05-23T05:40:15;11.98;;;11.63;;
26820;SDS011;37186;51.394;5.454;2023-05-23T05:43:16;12.90;;;12.50;;
26820;SDS011;37186;51.394;5.454;2023-05-23T05:46:16;15.35;;;14.85;;
26820;SDS011;37186;51.394;5.454;2023-05-23T05:49:17;12.48;;;12.07;;
26820;SDS011;37186;51.394;5.454;2023-05-23T05:52:17;16.98;;;16.48;;
26820;SDS011;37186;51.394;5.454;2023-05-23T05:55:18;15.05;;;14.55;;
26820;SDS011;37186;51.394;5.454;2023-05-23T05:58:18;14.38;;;13.95;;
26820;SDS011;37186;51.394;5.454;2023-05-23T06:01:19;13.00;;;12.60;;
26820;SDS011;37186;51.394;5.454;2023-05-23T06:04:20;13.82;;;13.43;;
26820;SDS011;37186;51.394;5.454;2023-05-23T06:07:20;11.98;;;11.63;;
26820;SDS011;37186;51.394;5.454;2023-05-23T06:10:21;14.27;;;13.85;;
26820;SDS011;37186;51.394;5.454;2023-05-23T06:13:21;14.05;;;13.65;;
26820;SDS011;37186;51.394;5.454;2023-05-23T06:16:22;12.80;;;12.40;;
26820;SDS011;37186;51.394;5.454;2023-05-23T06:19:22;10.68;;;10.38;;
26820;SDS011;37186;51.394;5.454;2023-05-23T06:22:23;11.32;;;11.02;;
26820;SDS011;37186;51.394;5.454;2023-05-23T06:25:23;10.13;;;9.82;;
26820;SDS011;37186;51.394;5.454;2023-05-23T06:28:24;10.35;;;10.05;;
26820;SDS011;37186;51.394;5.454;2023-05-23T06:31:25;11.50;;;11.15;;
26820;SDS011;37186;51.394;5.454;2023-05-23T06:34:25;10.60;;;10.30;;
26820;SDS011;37186;51.394;5.454;2023-05-23T06:37:26;9.02;;;8.77;;
26820;SDS011;37186;51.394;5.454;2023-05-23T06:40:26;9.73;;;9.43;;
26820;SDS011;37186;51.394;5.454;2023-05-23T06:43:27;9.23;;;8.93;;
26820;SDS011;37186;51.394;5.454;2023-05-23T06:46:27;8.80;;;8.55;;
26820;SDS011;37186;51.394;5.454;2023-05-23T06:49:28;9.35;;;9.05;;
26820;SDS011;37186;51.394;5.454;2023-05-23T06:52:28;9.13;;;8.85;;
26820;SDS011;37186;51.394;5.454;2023-05-23T06:55:29;9.13;;;8.82;;
26820;SDS011;37186;51.394;5.454;2023-05-23T06:58:30;8.35;;;8.15;;
26820;SDS011;37186;51.394;5.454;2023-05-23T07:01:31;8.52;;;8.32;;
26820;SDS011;37186;51.394;5.454;2023-05-23T07:04:31;7.90;;;7.70;;
26820;SDS011;37186;51.394;5.454;2023-05-23T07:07:32;8.07;;;7.88;;
26820;SDS011;37186;51.394;5.454;2023-05-23T07:10:33;7.57;;;7.38;;
26820;SDS011;37186;51.394;5.454;2023-05-23T07:13:34;7.97;;;7.78;;
26820;SDS011;37186;51.394;5.454;2023-05-23T07:16:34;9.27;;;8.98;;
26820;SDS011;37186;51.394;5.454;2023-05-23T07:19:36;8.25;;;8.05;;
26820;SDS011;37186;51.394;5.454;2023-05-23T07:22:36;8.02;;;7.82;;
26820;SDS011;37186;51.394;5.454;2023-05-23T07:25:37;7.93;;;7.72;;
26820;SDS011;37186;51.394;5.454;2023-05-23T07:28:39;8.43;;;8.23;;
26820;SDS011;37186;51.394;5.454;2023-05-23T07:31:39;8.15;;;7.95;;
26820;SDS011;37186;51.394;5.454;2023-05-23T07:34:40;8.60;;;8.40;;
26820;SDS011;37186;51.394;5.454;2023-05-23T07:37:41;8.07;;;7.88;;
26820;SDS011;37186;51.394;5.454;2023-05-23T07:40:41;7.68;;;7.47;;
26820;SDS011;37186;51.394;5.454;2023-05-23T07:43:42;7.72;;;7.53;;
26820;SDS011;37186;51.394;5.454;2023-05-23T07:46:42;7.55;;;7.35;;
26820;SDS011;37186;51.394;5.454;2023-05-23T07:49:43;7.28;;;7.07;;
26820;SDS011;37186;51.394;5.454;2023-05-23T07:52:43;7.47;;;7.28;;
26820;SDS011;37186;51.394;5.454;2023-05-23T07:55:44;7.95;;;7.75;;
26820;SDS011;37186;51.394;5.454;2023-05-23T07:58:45;8.32;;;8.13;;
26820;SDS011;37186;51.394;5.454;2023-05-23T08:01:45;9.23;;;8.95;;
26820;SDS011;37186;51.394;5.454;2023-05-23T08:04:49;9.32;;;9.02;;
26820;SDS011;37186;51.394;5.454;2023-05-23T08:07:49;9.00;;;8.73;;
26820;SDS011;37186;51.394;5.454;2023-05-23T08:10:52;8.90;;;8.65;;
26820;SDS011;37186;51.394;5.454;2023-05-23T08:13:53;8.52;;;8.32;;
26820;SDS011;37186;51.394;5.454;2023-05-23T08:16:53;9.43;;;9.13;;
26820;SDS011;37186;51.394;5.454;2023-05-23T08:19:54;9.38;;;9.07;;
26820;SDS011;37186;51.394;5.454;2023-05-23T08:22:58;8.60;;;8.38;;
26820;SDS011;37186;51.394;5.454;2023-05-23T08:25:59;8.23;;;8.02;;
26820;SDS011;37186;51.394;5.454;2023-05-23T08:29:00;7.20;;;7.00;;
26820;SDS011;37186;51.394;5.454;2023-05-23T08:32:01;7.03;;;6.82;;
26820;SDS011;37186;51.394;5.454;2023-05-23T08:35:02;6.13;;;5.93;;
26820;SDS011;37186;51.394;5.454;2023-05-23T08:38:05;6.32;;;6.13;;
26820;SDS011;37186;51.394;5.454;2023-05-23T08:41:11;6.05;;;5.85;;
26820;SDS011;37186;51.394;5.454;2023-05-23T08:44:17;5.63;;;5.50;;
26820;SDS011;37186;51.394;5.454;2023-05-23T08:47:18;5.22;;;5.13;;
26820;SDS011;37186;51.394;5.454;2023-05-23T08:50:19;5.25;;;5.15;;
26820;SDS011;37186;51.394;5.454;2023-05-23T08:53:20;5.28;;;5.18;;
26820;SDS011;37186;51.394;5.454;2023-05-23T08:56:26;5.40;;;5.30;;
26820;SDS011;37186;51.394;5.454;2023-05-23T08:59:27;5.68;;;5.55;;
26820;SDS011;37186;51.394;5.454;2023-05-23T09:02:29;6.03;;;5.82;;
26820;SDS011;37186;51.394;5.454;2023-05-23T09:05:31;6.53;;;6.32;;
26820;SDS011;37186;51.394;5.454;2023-05-23T09:08:32;6.43;;;6.22;;
26820;SDS011;37186;51.394;5.454;2023-05-23T09:11:33;6.75;;;6.55;;
26820;SDS011;37186;51.394;5.454;2023-05-23T09:14:34;6.22;;;6.03;;
26820;SDS011;37186;51.394;5.454;2023-05-23T09:17:36;6.72;;;6.53;;
26820;SDS011;37186;51.394;5.454;2023-05-23T09:20:38;6.63;;;6.43;;
26820;SDS011;37186;51.394;5.454;2023-05-23T09:23:40;6.40;;;6.20;;
26820;SDS011;37186;51.394;5.454;2023-05-23T09:26:41;7.15;;;6.95;;
26820;SDS011;37186;51.394;5.454;2023-05-23T09:29:45;6.97;;;6.78;;
26820;SDS011;37186;51.394;5.454;2023-05-23T09:32:58;6.95;;;6.75;;
26820;SDS011;37186;51.394;5.454;2023-05-23T09:35:59;6.72;;;6.53;;
26820;SDS011;37186;51.394;5.454;2023-05-23T09:39:03;7.10;;;6.90;;
26820;SDS011;37186;51.394;5.454;2023-05-23T09:42:07;6.45;;;6.25;;
26820;SDS011;37186;51.394;5.454;2023-05-23T09:45:08;6.68;;;6.47;;
26820;SDS011;37186;51.394;5.454;2023-05-23T09:48:11;6.57;;;6.38;;
26820;SDS011;37186;51.394;5.454;2023-05-23T09:51:15;7.32;;;7.13;;
26820;SDS011;37186;51.394;5.454;2023-05-23T09:54:18;7.63;;;7.43;;
26820;SDS011;37186;51.394;5.454;2023-05-23T09:57:18;7.93;;;7.72;;
26820;SDS011;37186;51.394;5.454;2023-05-23T10:00:22;6.93;;;6.72;;
26820;SDS011;37186;51.394;5.454;2023-05-23T10:03:28;7.25;;;7.05;;
26820;SDS011;37186;51.394;5.454;2023-05-23T10:06:41;7.25;;;7.05;;
26820;SDS011;37186;51.394;5.454;2023-05-23T10:09:54;7.57;;;7.38;;
26820;SDS011;37186;51.394;5.454;2023-05-23T10:13:02;7.65;;;7.45;;
26820;SDS011;37186;51.394;5.454;2023-05-23T10:16:06;8.05;;;7.85;;
26820;SDS011;37186;51.394;5.454;2023-05-23T10:19:30;8.15;;;7.95;;
26820;SDS011;37186;51.394;5.454;2023-05-23T10:22:37;8.45;;;8.25;;
26820;SDS011;37186;51.394;5.454;2023-05-23T10:25:38;8.68;;;8.45;;
26820;SDS011;37186;51.394;5.454;2023-05-23T10:28:40;8.43;;;8.23;;
26820;SDS011;37186;51.394;5.454;2023-05-23T10:31:41;9.80;;;9.50;;
26820;SDS011;37186;51.394;5.454;2023-05-23T10:34:48;11.13;;;10.82;;
26820;SDS011;37186;51.394;5.454;2023-05-23T10:41:40;11.55;;;11.23;;
26820;SDS011;37186;51.394;5.454;2023-05-23T10:44:45;13.18;;;12.77;;
26820;SDS011;37186;51.394;5.454;2023-05-23T10:47:49;13.18;;;12.77;;
26820;SDS011;37186;51.394;5.454;2023-05-23T10:51:04;11.75;;;11.40;;
26820;SDS011;37186;51.394;5.454;2023-05-23T10:54:09;14.27;;;13.88;;
26820;SDS011;37186;51.394;5.454;2023-05-23T10:57:14;15.35;;;14.85;;
26820;SDS011;37186;51.394;5.454;2023-05-23T11:00:16;13.32;;;12.93;;
26820;SDS011;37186;51.394;5.454;2023-05-23T11:03:17;14.93;;;14.45;;
26820;SDS011;37186;51.394;5.454;2023-05-23T11:09:28;14.88;;;14.43;;
26820;SDS011;37186;51.394;5.454;2023-05-23T11:12:42;14.35;;;13.95;;
26820;SDS011;37186;51.394;5.454;2023-05-23T11:15:43;27.25;;;26.35;;
26820;SDS011;37186;51.394;5.454;2023-05-23T11:18:44;24.58;;;23.77;;
26820;SDS011;37186;51.394;5.454;2023-05-23T11:21:46;21.83;;;21.13;;
26820;SDS011;37186;51.394;5.454;2023-05-23T11:24:49;21.65;;;20.95;;
26820;SDS011;37186;51.394;5.454;2023-05-23T11:27:52;21.50;;;20.80;;
26820;SDS011;37186;51.394;5.454;2023-05-23T11:30:53;21.27;;;20.58;;
26820;SDS011;37186;51.394;5.454;2023-05-23T11:33:56;20.10;;;19.50;;
26820;SDS011;37186;51.394;5.454;2023-05-23T11:36:56;19.88;;;19.27;;
26820;SDS011;37186;51.394;5.454;2023-05-23T11:39:57;21.83;;;21.13;;
26820;SDS011;37186;51.394;5.454;2023-05-23T11:42:59;18.80;;;18.20;;
26820;SDS011;37186;51.394;5.454;2023-05-23T11:46:07;18.08;;;17.48;;
26820;SDS011;37186;51.394;5.454;2023-05-23T11:49:11;15.00;;;14.52;;
26820;SDS011;37186;51.394;5.454;2023-05-23T11:52:11;14.27;;;13.88;;
26820;SDS011;37186;51.394;5.454;2023-05-23T11:55:12;13.73;;;13.32;;
26820;SDS011;37186;51.394;5.454;2023-05-23T11:58:13;14.57;;;14.18;;
26820;SDS011;37186;51.394;5.454;2023-05-23T12:01:13;12.60;;;12.20;;
26820;SDS011;37186;51.394;5.454;2023-05-23T12:04:14;10.73;;;10.43;;
26820;SDS011;37186;51.394;5.454;2023-05-23T12:07:17;11.10;;;10.80;;
26820;SDS011;37186;51.394;5.454;2023-05-23T12:10:19;11.13;;;10.82;;
26820;SDS011;37186;51.394;5.454;2023-05-23T12:13:24;10.63;;;10.32;;
26820;SDS011;37186;51.394;5.454;2023-05-23T12:16:30;11.35;;;11.05;;
26820;SDS011;37186;51.394;5.454;2023-05-23T12:19:30;11.13;;;10.82;;
26820;SDS011;37186;51.394;5.454;2023-05-23T12:22:31;10.82;;;10.52;;
26820;SDS011;37186;51.394;5.454;2023-05-23T12:25:40;11.85;;;11.50;;
26820;SDS011;37186;51.394;5.454;2023-05-23T12:28:42;12.27;;;11.88;;
26820;SDS011;37186;51.394;5.454;2023-05-23T12:31:47;15.07;;;14.60;;
26820;SDS011;37186;51.394;5.454;2023-05-23T12:34:49;15.25;;;14.75;;
26820;SDS011;37186;51.394;5.454;2023-05-23T12:37:49;16.45;;;15.95;;
26820;SDS011;37186;51.394;5.454;2023-05-23T12:41:06;16.27;;;15.77;;
26820;SDS011;37186;51.394;5.454;2023-05-23T12:44:11;19.05;;;18.45;;
26820;SDS011;37186;51.394;5.454;2023-05-23T12:47:15;17.40;;;16.90;;
26820;SDS011;37186;51.394;5.454;2023-05-23T12:50:15;16.48;;;15.98;;
26820;SDS011;37186;51.394;5.454;2023-05-23T12:53:16;16.30;;;15.80;;
26820;SDS011;37186;51.394;5.454;2023-05-23T12:56:16;15.48;;;14.98;;
26820;SDS011;37186;51.394;5.454;2023-05-23T12:59:17;17.95;;;17.35;;
26820;SDS011;37186;51.394;5.454;2023-05-23T13:02:18;16.23;;;15.73;;
26820;SDS011;37186;51.394;5.454;2023-05-23T13:05:20;15.98;;;15.48;;
26820;SDS011;37186;51.394;5.454;2023-05-23T13:08:21;16.30;;;15.80;;
26820;SDS011;37186;51.394;5.454;2023-05-23T13:11:22;15.60;;;15.10;;
26820;SDS011;37186;51.394;5.454;2023-05-23T13:14:23;16.50;;;16.00;;
26820;SDS011;37186;51.394;5.454;2023-05-23T13:17:23;18.38;;;17.77;;
26820;SDS011;37186;51.394;5.454;2023-05-23T13:20:24;21.02;;;20.33;;
26820;SDS011;37186;51.394;5.454;2023-05-23T13:23:29;12.13;;;11.73;;
26820;SDS011;37186;51.394;5.454;2023-05-23T13:26:29;15.00;;;14.50;;
26820;SDS011;37186;51.394;5.454;2023-05-23T13:29:30;14.18;;;13.77;;
26820;SDS011;37186;51.394;5.454;2023-05-23T13:32:31;14.32;;;13.93;;
26820;SDS011;37186;51.394;5.454;2023-05-23T13:35:31;13.07;;;12.68;;
26820;SDS011;37186;51.394;5.454;2023-05-23T13:38:32;14.90;;;14.43;;
26820;SDS011;37186;51.394;5.454;2023-05-23T13:41:32;16.35;;;15.85;;
26820;SDS011;37186;51.394;5.454;2023-05-23T13:44:33;17.75;;;17.15;;
26820;SDS011;37186;51.394;5.454;2023-05-23T13:47:33;16.52;;;16.02;;
26820;SDS011;37186;51.394;5.454;2023-05-23T13:50:35;16.77;;;16.27;;
26820;SDS011;37186;51.394;5.454;2023-05-23T13:53:35;17.80;;;17.20;;
26820;SDS011;37186;51.394;5.454;2023-05-23T13:56:36;29.25;;;28.25;;
26820;SDS011;37186;51.394;5.454;2023-05-23T13:59:38;42.33;;;40.80;;
26820;SDS011;37186;51.394;5.454;2023-05-23T14:02:39;40.75;;;39.28;;
26820;SDS011;37186;51.394;5.454;2023-05-23T14:05:39;39.65;;;38.25;;
26820;SDS011;37186;51.394;5.454;2023-05-23T14:08:40;37.70;;;36.40;;
26820;SDS011;37186;51.394;5.454;2023-05-23T14:11:40;37.92;;;36.60;;
26820;SDS011;37186;51.394;5.454;2023-05-23T14:14:41;40.38;;;38.92;;
26820;SDS011;37186;51.394;5.454;2023-05-23T14:17:42;41.75;;;40.25;;
26820;SDS011;37186;51.394;5.454;2023-05-23T14:20:42;40.30;;;38.88;;
26820;SDS011;37186;51.394;5.454;2023-05-23T14:23:43;39.22;;;37.83;;
26820;SDS011;37186;51.394;5.454;2023-05-23T14:26:43;40.53;;;39.10;;
26820;SDS011;37186;51.394;5.454;2023-05-23T14:29:45;38.80;;;37.40;;
26820;SDS011;37186;51.394;5.454;2023-05-23T14:32:46;36.85;;;35.55;;
26820;SDS011;37186;51.394;5.454;2023-05-23T14:35:47;37.10;;;35.80;;
26820;SDS011;37186;51.394;5.454;2023-05-23T14:38:48;39.55;;;38.15;;
26820;SDS011;37186;51.394;5.454;2023-05-23T14:41:50;38.50;;;37.10;;
26820;SDS011;37186;51.394;5.454;2023-05-23T14:44:51;35.92;;;34.63;;
26820;SDS011;37186;51.394;5.454;2023-05-23T14:47:55;31.48;;;30.38;;
26820;SDS011;37186;51.394;5.454;2023-05-23T14:50:55;33.45;;;32.28;;
26820;SDS011;37186;51.394;5.454;2023-05-23T14:54:00;30.33;;;29.33;;
26820;SDS011;37186;51.394;5.454;2023-05-23T14:57:01;35.05;;;33.85;;
26820;SDS011;37186;51.394;5.454;2023-05-23T15:00:02;38.28;;;36.92;;
26820;SDS011;37186;51.394;5.454;2023-05-23T15:03:04;35.45;;;34.25;;
26820;SDS011;37186;51.394;5.454;2023-05-23T15:06:05;35.90;;;34.65;;
26820;SDS011;37186;51.394;5.454;2023-05-23T15:09:06;32.42;;;31.33;;
26820;SDS011;37186;51.394;5.454;2023-05-23T15:12:09;43.35;;;41.80;;
26820;SDS011;37186;51.394;5.454;2023-05-23T15:15:09;33.70;;;32.55;;
26820;SDS011;37186;51.394;5.454;2023-05-23T15:18:10;29.70;;;28.70;;
26820;SDS011;37186;51.394;5.454;2023-05-23T15:21:12;31.83;;;30.73;;
26820;SDS011;37186;51.394;5.454;2023-05-23T15:24:13;27.60;;;26.67;;
26820;SDS011;37186;51.394;5.454;2023-05-23T15:27:13;31.73;;;30.63;;
26820;SDS011;37186;51.394;5.454;2023-05-23T15:30:14;20.10;;;19.45;;
26820;SDS011;37186;51.394;5.454;2023-05-23T15:33:14;18.67;;;18.08;;
26820;SDS011;37186;51.394;5.454;2023-05-23T15:36:15;19.15;;;18.55;;
26820;SDS011;37186;51.394;5.454;2023-05-23T15:39:15;17.30;;;16.77;;
26820;SDS011;37186;51.394;5.454;2023-05-23T15:42:17;18.20;;;17.60;;
26820;SDS011;37186;51.394;5.454;2023-05-23T15:45:17;17.10;;;16.60;;
26820;SDS011;37186;51.394;5.454;2023-05-23T15:48:18;15.52;;;15.02;;
26820;SDS011;37186;51.394;5.454;2023-05-23T15:51:18;19.17;;;18.58;;
26820;SDS011;37186;51.394;5.454;2023-05-23T15:54:19;16.95;;;16.45;;
26820;SDS011;37186;51.394;5.454;2023-05-23T15:57:20;17.55;;;17.00;;
26820;SDS011;37186;51.394;5.454;2023-05-23T16:00:20;16.48;;;15.98;;
26820;SDS011;37186;51.394;5.454;2023-05-23T16:03:21;15.05;;;14.55;;
26820;SDS011;37186;51.394;5.454;2023-05-23T16:06:22;16.42;;;15.93;;
26820;SDS011;37186;51.394;5.454;2023-05-23T16:09:22;95.47;;;91.77;;
26820;SDS011;37186;51.394;5.454;2023-05-23T16:12:23;33.70;;;32.47;;
26820;SDS011;37186;51.394;5.454;2023-05-23T16:15:23;23.15;;;22.35;;
26820;SDS011;37186;51.394;5.454;2023-05-23T16:18:24;16.35;;;15.82;;
26820;SDS011;37186;51.394;5.454;2023-05-23T16:21:24;15.75;;;15.25;;
26820;SDS011;37186;51.394;5.454;2023-05-23T16:24:25;102.93;;;98.83;;
26820;SDS011;37186;51.394;5.454;2023-05-23T16:27:27;22.23;;;21.45;;
26820;SDS011;37186;51.394;5.454;2023-05-23T16:30:27;17.63;;;17.02;;
26820;SDS011;37186;51.394;5.454;2023-05-23T16:33:28;14.43;;;13.98;;
26820;SDS011;37186;51.394;5.454;2023-05-23T16:36:28;9.57;;;9.27;;
26820;SDS011;37186;51.394;5.454;2023-05-23T16:39:29;9.25;;;8.98;;
26820;SDS011;37186;51.394;5.454;2023-05-23T16:42:30;15.45;;;14.95;;
26820;SDS011;37186;51.394;5.454;2023-05-23T16:45:30;13.75;;;13.35;;
26820;SDS011;37186;51.394;5.454;2023-05-23T16:48:31;13.95;;;13.52;;
26820;SDS011;37186;51.394;5.454;2023-05-23T16:51:31;13.27;;;12.88;;
26820;SDS011;37186;51.394;5.454;2023-05-23T16:54:32;15.13;;;14.65;;
26820;SDS011;37186;51.394;5.454;2023-05-23T16:57:32;16.52;;;16.02;;
26820;SDS011;37186;51.394;5.454;2023-05-23T17:00:33;25.92;;;25.05;;
26820;SDS011;37186;51.394;5.454;2023-05-23T17:03:33;22.35;;;21.65;;
26820;SDS011;37186;51.394;5.454;2023-05-23T17:06:34;23.08;;;22.27;;
26820;SDS011;37186;51.394;5.454;2023-05-23T17:09:36;26.60;;;25.63;;
26820;SDS011;37186;51.394;5.454;2023-05-23T17:12:37;23.20;;;22.42;;
26820;SDS011;37186;51.394;5.454;2023-05-23T17:15:39;15.73;;;15.23;;
26820;SDS011;37186;51.394;5.454;2023-05-23T17:18:40;12.70;;;12.30;;
26820;SDS011;37186;51.394;5.454;2023-05-23T17:21:40;14.75;;;14.30;;
26820;SDS011;37186;51.394;5.454;2023-05-23T17:24:41;14.32;;;13.88;;
26820;SDS011;37186;51.394;5.454;2023-05-23T17:27:41;12.10;;;11.73;;
26820;SDS011;37186;51.394;5.454;2023-05-23T17:30:42;13.82;;;13.43;;
26820;SDS011;37186;51.394;5.454;2023-05-23T17:33:43;15.05;;;14.55;;
26820;SDS011;37186;51.394;5.454;2023-05-23T17:36:44;14.57;;;14.13;;
26820;SDS011;37186;51.394;5.454;2023-05-23T17:39:45;14.50;;;14.05;;
26820;SDS011;37186;51.394;5.454;2023-05-23T17:42:46;19.00;;;18.40;;
26820;SDS011;37186;51.394;5.454;2023-05-23T17:45:47;18.83;;;18.23;;
26820;SDS011;37186;51.394;5.454;2023-05-23T17:48:48;19.02;;;18.42;;
26820;SDS011;37186;51.394;5.454;2023-05-23T17:51:48;22.98;;;22.17;;
26820;SDS011;37186;51.394;5.454;2023-05-23T17:54:49;29.95;;;28.88;;
26820;SDS011;37186;51.394;5.454;2023-05-23T17:57:49;31.67;;;30.55;;
26820;SDS011;37186;51.394;5.454;2023-05-23T18:00:50;22.25;;;21.48;;
26820;SDS011;37186;51.394;5.454;2023-05-23T18:03:50;16.02;;;15.52;;
26820;SDS011;37186;51.394;5.454;2023-05-23T18:06:52;14.70;;;14.23;;
26820;SDS011;37186;51.394;5.454;2023-05-23T18:09:53;12.90;;;12.50;;
26820;SDS011;37186;51.394;5.454;2023-05-23T18:12:53;10.55;;;10.25;;